logo
Search for airport 
image banner adimage banner adimage banner ad
image banner ad

EHQJ - Q4-B (Oil Platform)

Located in , Netherlands

ICAO - , IATA -

Data provided by Airmate  

General information

Coordinates: N52°42'59" E4°17'59"
Elevation is feet MSL.
 
View others Airports in Noord-Holland

Operational data

Special qualification required
Current time UTC:
Current local time:
Weather at : EHKD - Den Helder/De Kooy ( 40 km )
METAR: EHKD 180125Z AUTO 19004KT 9999 FEW320 11/10 Q1013 BLU
TAF: TAF EHKD 180032Z 1801/1813 18005KT CAVOK PROB30 TEMPO 1801/1805 4500 BR MIFG BECMG 1810/1812 36006KT
View NOTAMs / SUP AIP / TFR affecting this airport [VIEW]
Communications frequencies: [VIEW]

Runways:

Airport contact information

Address: Netherlands

Satellite view of EHQJ